Time;durP1;ratioP1;P1;durP2;ratioP2;P2;SDS_P1;SDS_P2;PMS_P1;PMS_P2;Temp;Humidity;BMP_temperature;BMP_pressure;BME280_temperature;BME280_humidity;BME280_pressure;Samples;Min_cycle;Max_cycle;Signal;HPM_P1;HPM_P2
2023/12/15 00:00:01;;;;;;;26.92;12.73;;;5.40;99.90;;;;;;5034491;28;20041;-76
2023/12/15 00:02:27;;;;;;;25.73;12.50;;;5.50;99.90;;;;;;5034332;28;20060;-75
2023/12/15 00:04:52;;;;;;;29.48;14.15;;;5.40;99.90;;;;;;5049276;28;20030;-75
2023/12/15 00:07:18;;;;;;;28.98;13.60;;;5.40;99.90;;;;;;5040027;28;20098;-75
2023/12/15 00:09:44;;;;;;;28.60;14.68;;;5.50;99.90;;;;;;5045853;28;20037;-75
2023/12/15 00:12:09;;;;;;;27.55;13.57;;;5.50;99.90;;;;;;5036379;28;20091;-75
2023/12/15 00:14:35;;;;;;;26.92;11.50;;;5.50;99.90;;;;;;5040798;28;20636;-75
2023/12/15 00:17:02;;;;;;;25.48;13.38;;;5.50;99.90;;;;;;5048215;28;20040;-75
2023/12/15 00:19:28;;;;;;;32.25;14.77;;;5.50;99.90;;;;;;5043919;28;20123;-75
2023/12/15 00:21:53;;;;;;;29.35;13.75;;;5.50;99.90;;;;;;5048344;28;20141;-75
2023/12/15 00:24:19;;;;;;;28.52;13.35;;;5.50;99.90;;;;;;5047984;28;20133;-75
2023/12/15 00:26:44;;;;;;;26.88;13.45;;;5.50;99.90;;;;;;5039076;28;20439;-75
2023/12/15 00:29:10;;;;;;;24.60;13.27;;;5.50;99.90;;;;;;5046518;28;20136;-75
2023/12/15 00:31:36;;;;;;;31.35;13.27;;;5.50;99.90;;;;;;5049732;28;20053;-75
2023/12/15 00:34:01;;;;;;;27.45;13.25;;;5.50;99.90;;;;;;5046022;28;20037;-75
2023/12/15 00:36:27;;;;;;;27.13;12.75;;;5.50;99.90;;;;;;5052376;28;20431;-75
2023/12/15 00:38:53;;;;;;;30.67;13.73;;;5.60;99.90;;;;;;5053268;28;20068;-76
2023/12/15 00:41:19;;;;;;;30.45;13.68;;;5.50;99.90;;;;;;5045222;28;20049;-75
2023/12/15 00:43:44;;;;;;;28.05;14.32;;;5.60;99.90;;;;;;5046649;28;20029;-76
2023/12/15 00:46:10;;;;;;;30.52;13.68;;;5.50;99.90;;;;;;5039098;28;20678;-76
2023/12/15 00:48:35;;;;;;;26.27;13.00;;;5.50;99.90;;;;;;5041472;28;20044;-76
2023/12/15 00:51:01;;;;;;;28.13;14.07;;;5.60;99.90;;;;;;5038011;28;20041;-76
2023/12/15 00:53:32;;;;;;;27.23;13.80;;;5.60;99.90;;;;;;5050605;28;20132;-76
2023/12/15 00:55:58;;;;;;;29.67;13.63;;;5.60;99.90;;;;;;5043070;28;20167;-76
2023/12/15 00:58:24;;;;;;;31.93;14.50;;;5.60;99.90;;;;;;5048920;28;20048;-75
2023/12/15 01:00:50;;;;;;;26.58;13.55;;;5.60;99.90;;;;;;5037242;28;20037;-75
2023/12/15 01:03:15;;;;;;;29.13;14.65;;;5.60;99.90;;;;;;5026009;28;20124;-76
2023/12/15 01:05:41;;;;;;;28.85;13.75;;;5.60;99.90;;;;;;5020021;28;20049;-76
2023/12/15 01:08:07;;;;;;;27.10;12.65;;;5.60;99.90;;;;;;5024321;28;20405;-75
2023/12/15 01:10:32;;;;;;;28.80;13.63;;;5.70;99.90;;;;;;5023038;28;20488;-75
2023/12/15 01:12:58;;;;;;;29.48;14.85;;;5.60;99.90;;;;;;5027071;28;20045;-74
2023/12/15 01:15:24;;;;;;;30.08;13.75;;;5.70;99.90;;;;;;5019183;28;20029;-75
2023/12/15 01:17:49;;;;;;;27.73;14.20;;;5.70;99.90;;;;;;5028158;28;20099;-74
2023/12/15 01:20:16;;;;;;;28.02;13.82;;;5.70;99.90;;;;;;5024855;28;20755;-74
2023/12/15 01:22:42;;;;;;;25.13;13.52;;;5.70;99.90;;;;;;5023105;28;20161;-74
2023/12/15 01:25:09;;;;;;;28.20;14.93;;;5.70;99.90;;;;;;5021227;28;20374;-74
2023/12/15 01:27:35;;;;;;;24.83;14.23;;;5.70;99.90;;;;;;5020470;28;20064;-75
2023/12/15 01:30:00;;;;;;;35.28;14.73;;;5.70;99.90;;;;;;5020063;28;20834;-75
2023/12/15 01:32:26;;;;;;;30.13;15.38;;;5.70;99.90;;;;;;5026705;28;20037;-74
2023/12/15 01:34:52;;;;;;;32.03;15.63;;;5.70;99.90;;;;;;5019529;28;20084;-75
2023/12/15 01:37:17;;;;;;;30.10;14.60;;;5.70;99.90;;;;;;5020585;28;20063;-75
2023/12/15 01:39:43;;;;;;;28.13;14.07;;;5.70;99.90;;;;;;5023609;28;20104;-75
2023/12/15 01:42:09;;;;;;;29.42;14.85;;;5.70;99.90;;;;;;5024632;28;20053;-74
2023/12/15 01:44:34;;;;;;;27.55;14.25;;;5.80;99.90;;;;;;5030051;28;20048;-74
2023/12/15 01:47:03;;;;;;;27.63;15.25;;;5.80;99.90;;;;;;5029387;28;20052;-74
2023/12/15 01:49:29;;;;;;;27.92;14.85;;;5.80;99.90;;;;;;5024526;28;20045;-75
2023/12/15 01:51:55;;;;;;;34.22;15.38;;;5.80;99.90;;;;;;5023461;28;20432;-74
2023/12/15 01:54:21;;;;;;;33.15;14.90;;;5.80;99.90;;;;;;5023089;28;20053;-75
2023/12/15 01:56:46;;;;;;;27.90;14.27;;;5.80;99.90;;;;;;5027133;28;20170;-75
2023/12/15 01:59:12;;;;;;;35.78;14.52;;;5.90;99.90;;;;;;5023024;28;20034;-74
2023/12/15 02:01:38;;;;;;;31.10;15.10;;;5.80;99.90;;;;;;5028511;28;20056;-75
2023/12/15 02:04:04;;;;;;;30.60;14.68;;;5.90;99.90;;;;;;5039634;28;20124;-75
2023/12/15 02:06:30;;;;;;;28.30;15.30;;;5.90;99.90;;;;;;5043888;28;20041;-75
2023/12/15 02:08:55;;;;;;;26.33;15.07;;;5.90;99.90;;;;;;5042830;28;20182;-75
2023/12/15 02:11:21;;;;;;;30.98;16.40;;;5.90;99.90;;;;;;5042445;28;20514;-75
2023/12/15 02:13:46;;;;;;;29.58;14.88;;;5.90;99.90;;;;;;5046279;28;20051;-75
2023/12/15 02:16:12;;;;;;;34.97;15.95;;;5.90;99.90;;;;;;5043476;28;20036;-75
2023/12/15 02:18:38;;;;;;;34.28;15.52;;;6.00;99.90;;;;;;5043247;28;20251;-74
2023/12/15 02:21:04;;;;;;;29.02;14.32;;;6.00;99.90;;;;;;5041048;28;20045;-75
2023/12/15 02:23:29;;;;;;;32.03;16.35;;;6.00;99.90;;;;;;5039734;28;20133;-74
2023/12/15 02:25:55;;;;;;;28.38;15.38;;;6.00;99.90;;;;;;5048354;28;20469;-74
2023/12/15 02:28:20;;;;;;;32.72;15.57;;;6.00;99.90;;;;;;5045977;28;20502;-74
2023/12/15 02:30:46;;;;;;;33.85;16.55;;;6.00;99.90;;;;;;5041310;28;20404;-75
2023/12/15 02:33:12;;;;;;;34.15;15.82;;;6.10;99.90;;;;;;5042316;28;20045;-75
2023/12/15 02:35:39;;;;;;;35.53;17.50;;;6.00;99.90;;;;;;5044976;28;20041;-74
2023/12/15 02:38:07;;;;;;;;;;;6.00;99.90;;;;;;5040447;28;20496;-75
2023/12/15 02:40:35;;;;;;;35.92;16.63;;;6.00;99.90;;;;;;5042971;28;20050;-74
2023/12/15 02:43:01;;;;;;;37.45;16.70;;;6.10;99.90;;;;;;5050208;28;20403;-74
2023/12/15 02:45:26;;;;;;;35.53;17.83;;;6.00;99.90;;;;;;5055971;28;20037;-74
2023/12/15 02:47:52;;;;;;;36.47;16.95;;;6.10;99.90;;;;;;5044531;28;20197;-74
2023/12/15 02:50:17;;;;;;;36.15;18.00;;;6.10;99.90;;;;;;5048562;28;20560;-74
2023/12/15 02:52:43;;;;;;;38.85;17.23;;;6.00;99.90;;;;;;5047868;28;20115;-74
2023/12/15 02:55:11;;;;;;;32.15;16.08;;;6.10;99.90;;;;;;5049630;28;20130;-74
2023/12/15 02:57:36;;;;;;;;;;;6.10;99.90;;;;;;5044119;28;20500;-75
2023/12/15 03:00:03;;;;;;;36.15;17.58;;;6.00;99.90;;;;;;5039177;28;20018;-74
2023/12/15 03:02:28;;;;;;;32.28;15.88;;;6.10;99.90;;;;;;5043089;28;20041;-74
2023/12/15 03:04:54;;;;;;;39.17;18.13;;;6.10;99.90;;;;;;5048030;28;20118;-75
2023/12/15 03:07:20;;;;;;;32.65;18.58;;;6.10;99.90;;;;;;5050246;28;20470;-74
2023/12/15 03:09:45;;;;;;;35.97;18.35;;;6.20;99.90;;;;;;5047489;28;20040;-75
2023/12/15 03:12:11;;;;;;;35.53;18.65;;;6.10;99.90;;;;;;5046994;28;20128;-75
2023/12/15 03:14:36;;;;;;;34.95;18.02;;;6.20;99.90;;;;;;5036254;28;20052;-75
2023/12/15 03:17:02;;;;;;;40.38;18.67;;;6.20;99.90;;;;;;5051456;28;20048;-75
2023/12/15 03:19:28;;;;;;;36.67;17.45;;;6.20;99.90;;;;;;5047432;28;20048;-75
2023/12/15 03:21:53;;;;;;;43.95;18.67;;;6.20;99.90;;;;;;5048317;28;20072;-74
2023/12/15 03:24:19;;;;;;;43.78;19.42;;;6.20;99.90;;;;;;5038471;28;20492;-75
2023/12/15 03:26:45;;;;;;;34.33;16.30;;;6.30;99.90;;;;;;5048201;28;20037;-75
2023/12/15 03:29:10;;;;;;;42.40;19.17;;;6.30;99.90;;;;;;5037522;28;20056;-75
2023/12/15 03:31:36;;;;;;;40.35;19.50;;;6.30;99.90;;;;;;5039326;28;20049;-74
2023/12/15 03:34:01;;;;;;;48.00;20.35;;;6.40;99.90;;;;;;5044111;28;20078;-74
2023/12/15 03:36:27;;;;;;;44.30;17.55;;;6.40;99.90;;;;;;5046013;28;20073;-74
2023/12/15 03:38:53;;;;;;;42.15;19.55;;;6.30;99.90;;;;;;5040005;28;20480;-74
2023/12/15 03:41:19;;;;;;;42.88;18.98;;;6.30;99.90;;;;;;5070645;28;20049;-74
2023/12/15 03:43:44;;;;;;;44.72;20.73;;;6.40;99.90;;;;;;5045884;28;20073;-74
2023/12/15 03:46:11;;;;;;;58.17;20.98;;;6.40;99.90;;;;;;5043601;28;20037;-74
2023/12/15 03:48:36;;;;;;;50.13;19.87;;;6.40;99.90;;;;;;5039315;28;20045;-75
2023/12/15 03:51:02;;;;;;;42.55;19.52;;;6.30;99.90;;;;;;5040107;28;20378;-75
2023/12/15 03:53:28;;;;;;;42.33;19.27;;;6.40;99.90;;;;;;5048365;28;20044;-75
2023/12/15 03:55:53;;;;;;;40.72;19.10;;;6.30;99.90;;;;;;5049613;28;20029;-75
2023/12/15 03:58:19;;;;;;;51.83;20.83;;;6.40;99.90;;;;;;5046458;28;20044;-75
2023/12/15 04:00:45;;;;;;;52.25;18.23;;;6.40;99.90;;;;;;5050394;28;20548;-75
2023/12/15 04:03:10;;;;;;;46.65;21.20;;;6.50;99.90;;;;;;5045395;28;20053;-75
2023/12/15 04:05:36;;;;;;;57.55;19.67;;;6.50;99.90;;;;;;5046540;28;20106;-74
2023/12/15 04:08:01;;;;;;;56.95;20.98;;;6.50;99.90;;;;;;5040894;28;20075;-75
2023/12/15 04:10:27;;;;;;;54.22;21.23;;;6.50;99.90;;;;;;5049156;28;20045;-75
2023/12/15 04:12:53;;;;;;;48.40;20.92;;;6.60;99.90;;;;;;5048687;28;20053;-75
2023/12/15 04:15:19;;;;;;;49.50;21.00;;;6.50;99.90;;;;;;5049066;28;20381;-74
2023/12/15 04:17:45;;;;;;;40.42;19.25;;;6.50;99.90;;;;;;5044419;28;20485;-74
2023/12/15 04:20:11;;;;;;;47.22;18.92;;;6.50;99.90;;;;;;5042865;28;20068;-75
2023/12/15 04:22:36;;;;;;;63.38;21.88;;;6.50;99.90;;;;;;5049869;28;20510;-75
2023/12/15 04:25:02;;;;;;;55.65;22.25;;;6.50;99.90;;;;;;5047267;28;20033;-75
2023/12/15 04:27:29;;;;;;;53.50;21.30;;;6.60;99.90;;;;;;5046973;28;20045;-75
2023/12/15 04:29:55;;;;;;;59.50;23.20;;;6.60;99.90;;;;;;5051106;28;20377;-75
2023/12/15 04:32:21;;;;;;;52.10;22.58;;;6.60;99.90;;;;;;5048759;28;20060;-75
2023/12/15 04:34:46;;;;;;;55.65;20.75;;;6.60;99.90;;;;;;5039868;28;20045;-74
2023/12/15 04:37:12;;;;;;;62.05;23.13;;;6.60;99.90;;;;;;5049068;28;20112;-74
2023/12/15 04:39:38;;;;;;;54.10;20.75;;;6.60;99.90;;;;;;5049342;28;20053;-75
2023/12/15 04:42:04;;;;;;;56.80;20.50;;;6.60;99.90;;;;;;5048300;28;20124;-74
2023/12/15 04:44:29;;;;;;;60.17;21.45;;;6.70;99.90;;;;;;5045446;28;20047;-75
2023/12/15 04:46:55;;;;;;;53.05;21.27;;;6.70;99.90;;;;;;5044758;28;20103;-75
2023/12/15 04:49:21;;;;;;;61.42;21.30;;;6.70;99.90;;;;;;5046682;28;20041;-75
2023/12/15 04:51:47;;;;;;;58.38;21.35;;;6.70;99.90;;;;;;5046059;28;20076;-75
2023/12/15 04:54:13;;;;;;;58.42;21.02;;;6.80;99.90;;;;;;5046379;28;20063;-74
2023/12/15 04:56:38;;;;;;;62.67;23.27;;;6.70;99.90;;;;;;5043600;28;20056;-74
2023/12/15 04:59:04;;;;;;;54.75;21.45;;;6.70;99.90;;;;;;5047056;28;20041;-74
2023/12/15 05:01:30;;;;;;;64.05;22.40;;;6.70;99.90;;;;;;5042430;28;20068;-75
2023/12/15 05:03:56;;;;;;;61.05;22.08;;;6.70;99.90;;;;;;5044317;28;20053;-75
2023/12/15 05:06:23;;;;;;;65.07;21.60;;;6.70;99.90;;;;;;5044761;28;20526;-75
2023/12/15 05:08:50;;;;;;;58.60;22.50;;;6.80;99.90;;;;;;5043729;28;20478;-75
2023/12/15 05:11:17;;;;;;;65.72;21.83;;;6.80;99.90;;;;;;5047299;28;20123;-75
2023/12/15 05:13:43;;;;;;;65.87;22.13;;;6.80;99.90;;;;;;5044237;28;20068;-74
2023/12/15 05:16:08;;;;;;;62.92;22.27;;;6.90;99.90;;;;;;5076052;28;20777;-75
2023/12/15 05:18:34;;;;;;;56.58;19.77;;;6.90;99.90;;;;;;5047091;28;20041;-75
2023/12/15 05:21:00;;;;;;;59.53;20.83;;;6.90;99.90;;;;;;5041648;28;20044;-74
2023/12/15 05:23:26;;;;;;;60.38;21.80;;;6.90;99.90;;;;;;5047687;28;20051;-74
2023/12/15 05:25:52;;;;;;;63.13;21.05;;;6.90;99.90;;;;;;5046525;28;20060;-74
2023/12/15 05:28:18;;;;;;;50.78;20.35;;;6.90;99.90;;;;;;5041626;28;20040;-74
2023/12/15 05:30:44;;;;;;;50.67;20.73;;;6.90;99.90;;;;;;5042547;28;20094;-74
2023/12/15 05:33:09;;;;;;;51.90;20.42;;;6.90;99.90;;;;;;5036952;28;20033;-74
2023/12/15 05:35:38;;;;;;;53.20;20.23;;;6.90;99.90;;;;;;5034487;28;20142;-74
2023/12/15 05:38:04;;;;;;;60.55;20.08;;;6.90;99.90;;;;;;5040433;28;20052;-75
2023/12/15 05:40:29;;;;;;;48.78;19.23;;;6.90;99.90;;;;;;5042502;28;20103;-75
2023/12/15 05:42:55;;;;;;;62.90;20.60;;;6.90;99.90;;;;;;5046361;28;20033;-75
2023/12/15 05:45:21;;;;;;;52.95;20.65;;;6.90;99.90;;;;;;5040922;28;20052;-75
2023/12/15 05:47:48;;;;;;;58.10;21.10;;;6.90;99.90;;;;;;5047340;28;20037;-75
2023/12/15 05:50:14;;;;;;;50.53;18.65;;;7.00;99.90;;;;;;5046773;28;20051;-75
2023/12/15 05:52:40;;;;;;;55.33;18.15;;;6.90;99.90;;;;;;5039960;28;20049;-74
2023/12/15 05:55:06;;;;;;;48.40;18.05;;;7.00;99.90;;;;;;5044584;28;20064;-75
2023/12/15 05:57:31;;;;;;;47.03;18.90;;;6.90;99.90;;;;;;5054938;28;20091;-75
2023/12/15 05:59:57;;;;;;;55.58;17.83;;;7.00;99.90;;;;;;5045670;28;20091;-75
2023/12/15 06:02:23;;;;;;;55.85;19.20;;;7.00;99.90;;;;;;5044816;28;20053;-75
2023/12/15 06:04:48;;;;;;;59.60;17.98;;;7.00;99.90;;;;;;5044957;28;20080;-75
2023/12/15 06:07:15;;;;;;;56.42;19.25;;;7.00;99.90;;;;;;5043782;28;20092;-75
2023/12/15 06:09:42;;;;;;;60.17;19.63;;;7.00;99.90;;;;;;5043895;28;20071;-75
2023/12/15 06:12:09;;;;;;;52.42;20.00;;;7.00;99.90;;;;;;5039342;28;20452;-75
2023/12/15 06:14:38;;;;;;;62.97;20.85;;;7.00;99.90;;;;;;5039174;28;20083;-75
2023/12/15 06:17:08;;;;;;;59.20;20.05;;;7.00;99.90;;;;;;5037616;28;20048;-74
2023/12/15 06:19:38;;;;;;;70.53;21.17;;;7.00;99.90;;;;;;5039741;28;20036;-74
2023/12/15 06:22:03;;;;;;;70.57;20.88;;;7.00;99.90;;;;;;5046604;28;20443;-75
2023/12/15 06:24:29;;;;;;;52.90;18.58;;;7.00;99.90;;;;;;5041874;28;20044;-75
2023/12/15 06:26:55;;;;;;;68.78;21.23;;;7.10;99.90;;;;;;5046208;28;20090;-75
2023/12/15 06:29:20;;;;;;;66.22;21.10;;;7.00;99.90;;;;;;5042249;28;20037;-75
2023/12/15 06:31:47;;;;;;;62.10;22.33;;;7.00;99.90;;;;;;5040797;28;20107;-75
2023/12/15 06:34:13;;;;;;;55.63;19.25;;;7.00;99.90;;;;;;5039984;28;20135;-75
2023/12/15 06:36:39;;;;;;;65.40;21.10;;;7.00;99.90;;;;;;5045503;28;20048;-75
2023/12/15 06:39:05;;;;;;;63.78;21.15;;;7.10;99.90;;;;;;5042830;28;20064;-75
2023/12/15 06:41:31;;;;;;;66.60;21.10;;;7.10;99.90;;;;;;5047152;28;20404;-74
2023/12/15 06:43:56;;;;;;;57.83;20.40;;;7.10;99.90;;;;;;5043048;28;20446;-74
2023/12/15 06:46:22;;;;;;;53.45;19.20;;;7.10;99.90;;;;;;5043475;28;20446;-75
2023/12/15 06:48:48;;;;;;;57.80;19.02;;;7.00;99.90;;;;;;5040195;28;20036;-74
2023/12/15 06:51:14;;;;;;;62.83;19.38;;;7.10;99.90;;;;;;5038167;28;20381;-75
2023/12/15 06:53:40;;;;;;;59.25;19.02;;;7.10;99.90;;;;;;5035135;28;20049;-73
2023/12/15 06:56:06;;;;;;;60.83;18.50;;;7.10;99.90;;;;;;5044262;28;20443;-77
2023/12/15 06:58:32;;;;;;;53.22;17.92;;;7.10;99.90;;;;;;5040096;28;20041;-76
2023/12/15 07:00:57;;;;;;;56.80;17.63;;;7.00;99.90;;;;;;5056306;28;20060;-75
2023/12/15 07:03:23;;;;;;;57.20;18.08;;;7.00;99.90;;;;;;5047197;28;20048;-75
2023/12/15 07:05:49;;;;;;;55.08;19.60;;;7.00;99.90;;;;;;5039622;28;20135;-75
2023/12/15 07:08:15;;;;;;;58.25;18.63;;;7.10;99.90;;;;;;5037756;28;20045;-75
2023/12/15 07:10:41;;;;;;;54.33;16.90;;;7.00;99.90;;;;;;5038696;28;20048;-75
2023/12/15 07:13:07;;;;;;;64.18;18.92;;;7.00;99.90;;;;;;5040303;28;20116;-76
2023/12/15 07:15:33;;;;;;;59.90;18.10;;;7.00;99.90;;;;;;5032226;28;20057;-77
2023/12/15 07:17:59;;;;;;;53.13;17.45;;;7.00;99.90;;;;;;5038579;28;20129;-76
2023/12/15 07:20:25;;;;;;;51.75;15.77;;;7.00;99.90;;;;;;5043110;28;20110;-77
2023/12/15 07:22:51;;;;;;;58.17;17.65;;;7.00;99.90;;;;;;5039484;28;20048;-76
2023/12/15 07:25:17;;;;;;;55.08;17.23;;;7.00;99.90;;;;;;5034433;28;20044;-77
2023/12/15 07:27:43;;;;;;;51.33;18.00;;;7.00;99.90;;;;;;5035143;28;20045;-76
2023/12/15 07:30:09;;;;;;;58.78;17.85;;;7.00;99.90;;;;;;5043240;28;20404;-77
2023/12/15 07:32:35;;;;;;;55.42;17.02;;;7.00;99.90;;;;;;5031937;28;20044;-77
2023/12/15 07:35:01;;;;;;;55.30;18.58;;;7.00;99.90;;;;;;5037468;28;20050;-77
2023/12/15 07:37:26;;;;;;;52.75;17.90;;;7.00;99.90;;;;;;5035367;28;20037;-76
2023/12/15 07:39:54;;;;;;;61.13;19.02;;;7.00;99.90;;;;;;5037707;28;20055;-77
2023/12/15 07:42:20;;;;;;;55.42;17.70;;;7.00;99.90;;;;;;5044467;28;20080;-77
2023/12/15 07:44:45;;;;;;;63.47;19.50;;;7.00;99.90;;;;;;5033804;28;20723;-78
2023/12/15 07:47:11;;;;;;;60.92;17.73;;;7.00;99.90;;;;;;5033510;28;20052;-76
2023/12/15 07:49:37;;;;;;;62.40;19.23;;;7.00;99.90;;;;;;5043496;28;20120;-76
2023/12/15 07:52:03;;;;;;;53.90;19.88;;;7.00;99.90;;;;;;5041666;28;20133;-77
2023/12/15 07:54:29;;;;;;;68.65;20.15;;;7.00;99.90;;;;;;5043757;28;20045;-76
2023/12/15 07:56:58;;;;;;;58.42;17.50;;;7.00;99.90;;;;;;5030789;28;20042;-76
2023/12/15 07:59:23;;;;;;;54.80;19.38;;;7.10;99.90;;;;;;5030977;28;20033;-76
2023/12/15 08:01:50;;;;;;;54.03;17.60;;;7.10;99.90;;;;;;5031741;28;20565;-76
2023/12/15 08:04:17;;;;;;;62.38;18.67;;;7.10;99.90;;;;;;5031738;28;20089;-76
2023/12/15 08:06:43;;;;;;;60.40;19.42;;;7.10;99.90;;;;;;5041172;28;20044;-76
2023/12/15 08:09:08;;;;;;;46.22;17.50;;;7.10;99.90;;;;;;5040054;28;20073;-77
2023/12/15 08:11:34;;;;;;;69.13;20.42;;;7.10;99.90;;;;;;5037764;28;20041;-77
2023/12/15 08:14:02;;;;;;;54.72;20.38;;;7.10;99.90;;;;;;5038292;28;20045;-77
2023/12/15 08:16:27;;;;;;;;;;;7.10;99.90;;;;;;5042952;28;20134;-77
2023/12/15 08:18:53;;;;;;;61.92;19.50;;;7.10;99.90;;;;;;5066318;28;20380;-76
2023/12/15 08:21:18;;;;;;;52.75;19.25;;;7.10;99.90;;;;;;5042303;28;20467;-75
2023/12/15 08:23:44;;;;;;;50.00;17.77;;;7.10;99.90;;;;;;5041464;28;20185;-76
2023/12/15 08:26:19;;;;;;;50.05;18.33;;;7.10;99.90;;;;;;5035983;28;20037;-75
2023/12/15 08:28:45;;;;;;;50.03;18.42;;;7.20;99.90;;;;;;5073162;28;20488;-76
2023/12/15 08:31:11;;;;;;;46.30;17.55;;;7.20;99.90;;;;;;5048668;28;20040;-76
2023/12/15 08:33:37;;;;;;;55.97;19.70;;;7.20;99.90;;;;;;5045148;28;20056;-76
2023/12/15 08:36:03;;;;;;;66.72;21.63;;;7.20;99.90;;;;;;5043350;28;20041;-76
2023/12/15 08:38:29;;;;;;;53.83;19.27;;;7.20;99.90;;;;;;5041548;28;20199;-77
2023/12/15 08:40:54;;;;;;;50.55;19.30;;;7.20;99.90;;;;;;5046284;28;20040;-77
2023/12/15 08:43:20;;;;;;;49.38;18.70;;;7.20;99.90;;;;;;5050082;28;20140;-77
2023/12/15 08:45:45;;;;;;;58.85;19.85;;;7.30;99.90;;;;;;5043787;28;20053;-76
2023/12/15 08:48:11;;;;;;;49.63;18.15;;;7.30;99.90;;;;;;5040314;28;20042;-75
2023/12/15 08:50:37;;;;;;;60.25;19.60;;;7.30;99.90;;;;;;5049932;28;20492;-73
2023/12/15 08:53:02;;;;;;;49.10;18.02;;;7.30;99.90;;;;;;5042464;28;20477;-76
2023/12/15 08:55:28;;;;;;;49.45;19.58;;;7.40;99.90;;;;;;5047849;28;20110;-78
2023/12/15 08:57:53;;;;;;;49.50;18.45;;;7.30;99.90;;;;;;5055309;28;20044;-77
2023/12/15 09:00:19;;;;;;;55.35;18.80;;;7.30;99.90;;;;;;5049299;28;20104;-77
2023/12/15 09:02:45;;;;;;;56.47;19.10;;;7.40;99.90;;;;;;5048438;28;20049;-77
2023/12/15 09:05:11;;;;;;;47.22;18.85;;;7.40;99.90;;;;;;5048604;28;20045;-73
2023/12/15 09:07:36;;;;;;;45.75;17.88;;;7.50;99.90;;;;;;5038261;28;20676;-73
2023/12/15 09:10:02;;;;;;;48.13;18.33;;;7.50;99.90;;;;;;5048223;28;20029;-73
2023/12/15 09:12:28;;;;;;;39.13;17.25;;;7.50;99.90;;;;;;5058394;28;20369;-75
2023/12/15 09:14:53;;;;;;;43.25;16.63;;;7.60;99.90;;;;;;5048916;28;20049;-78
2023/12/15 09:17:19;;;;;;;40.85;18.00;;;7.60;99.90;;;;;;5048713;28;20055;-77
2023/12/15 09:19:44;;;;;;;47.83;17.65;;;7.60;99.90;;;;;;5047264;28;20047;-77
2023/12/15 09:22:10;;;;;;;43.97;16.83;;;7.60;99.90;;;;;;5041909;28;20440;-78
2023/12/15 09:24:36;;;;;;;42.03;16.77;;;7.60;99.90;;;;;;5044387;28;20128;-77
2023/12/15 09:27:01;;;;;;;45.33;15.73;;;7.60;99.90;;;;;;5040014;28;20057;-77
2023/12/15 09:29:28;;;;;;;41.95;15.50;;;7.60;99.90;;;;;;5047875;28;20606;-76
2023/12/15 09:31:54;;;;;;;37.50;16.98;;;7.70;99.90;;;;;;5046946;28;20053;-77
2023/12/15 09:34:19;;;;;;;41.30;15.73;;;7.70;99.90;;;;;;5048418;28;20048;-77
2023/12/15 09:36:46;;;;;;;37.33;16.08;;;7.70;99.90;;;;;;5046237;28;20056;-78
2023/12/15 09:39:11;;;;;;;44.58;16.33;;;7.70;99.90;;;;;;5045845;28;20603;-77
2023/12/15 09:41:37;;;;;;;35.72;15.52;;;7.70;99.90;;;;;;5038779;28;20127;-78
2023/12/15 09:44:03;;;;;;;32.67;14.25;;;7.70;99.90;;;;;;5048399;28;20511;-77
2023/12/15 09:46:30;;;;;;;36.90;15.38;;;7.80;99.90;;;;;;5041068;28;20826;-79
2023/12/15 09:48:56;;;;;;;29.50;14.40;;;7.80;99.90;;;;;;5058259;28;20056;-77
2023/12/15 09:51:23;;;;;;;33.17;14.25;;;7.80;99.90;;;;;;5042898;28;20052;-77
2023/12/15 09:53:50;;;;;;;37.63;14.80;;;7.80;99.90;;;;;;5045719;28;20048;-77
2023/12/15 09:56:16;;;;;;;39.75;14.85;;;7.80;99.90;;;;;;5047364;28;20067;-77
2023/12/15 09:58:42;;;;;;;38.15;14.57;;;7.80;99.90;;;;;;5054425;28;20052;-76
2023/12/15 10:01:09;;;;;;;30.08;12.93;;;7.80;99.90;;;;;;5048882;28;20033;-77
2023/12/15 10:03:35;;;;;;;31.13;14.27;;;7.80;99.90;;;;;;5047738;28;20401;-76
2023/12/15 10:06:01;;;;;;;40.65;14.80;;;7.90;99.90;;;;;;5050794;28;20040;-76
2023/12/15 10:08:40;;;;;;;46.20;15.10;;;7.80;99.90;;;;;;5046575;28;20029;-73
2023/12/15 10:11:05;;;;;;;34.88;13.55;;;7.80;99.90;;;;;;5044297;28;20040;-72
2023/12/15 10:13:31;;;;;;;37.63;14.77;;;7.90;99.90;;;;;;5048697;28;20075;-73
2023/12/15 10:15:57;;;;;;;36.92;14.10;;;8.00;99.90;;;;;;5048080;28;20072;-74
2023/12/15 10:18:23;;;;;;;33.70;13.50;;;8.00;99.90;;;;;;5050480;28;20094;-76
2023/12/15 10:20:49;;;;;;;29.83;13.45;;;8.00;99.90;;;;;;5055270;28;20045;-74
2023/12/15 10:23:15;;;;;;;32.15;13.10;;;8.00;99.90;;;;;;5042456;28;20098;-74
2023/12/15 10:25:47;;;;;;;36.38;13.02;;;8.10;99.90;;;;;;5047301;28;20041;-75
2023/12/15 10:28:15;;;;;;;32.33;12.90;;;8.10;99.90;;;;;;5044186;28;20049;-74
2023/12/15 10:30:40;;;;;;;;;;;8.10;99.90;;;;;;5046863;28;20087;-74
2023/12/15 10:33:07;;;;;;;37.97;14.00;;;8.20;99.90;;;;;;5042845;28;19963;-74
2023/12/15 10:35:34;;;;;;;30.55;12.57;;;8.20;99.90;;;;;;5048833;28;20043;-74
2023/12/15 10:38:00;;;;;;;;;;;8.20;99.90;;;;;;5045459;28;20139;-72
2023/12/15 10:40:25;;;;;;;28.95;12.00;;;8.20;99.90;;;;;;5046513;28;19979;-72
2023/12/15 10:42:52;;;;;;;32.95;11.75;;;8.30;99.90;;;;;;5068111;28;20083;-73
2023/12/15 10:45:20;;;;;;;30.85;12.25;;;8.30;99.90;;;;;;5045080;28;20099;-72
2023/12/15 10:47:46;;;;;;;;;;;8.30;99.90;;;;;;5039495;28;20056;-73
2023/12/15 10:50:13;;;;;;;28.90;12.77;;;8.40;99.90;;;;;;5035397;28;20372;-72
2023/12/15 10:52:39;;;;;;;37.42;12.25;;;8.40;99.90;;;;;;5040347;28;20875;-72
2023/12/15 10:55:06;;;;;;;37.30;13.00;;;8.50;99.90;;;;;;5044941;28;20495;-73
2023/12/15 10:57:32;;;;;;;37.53;12.13;;;8.40;99.90;;;;;;5047801;28;20131;-73
2023/12/15 11:00:03;;;;;;;29.30;11.65;;;8.50;99.90;;;;;;5052635;28;20115;-75
2023/12/15 11:02:31;;;;;;;33.63;12.13;;;8.40;99.90;;;;;;5034923;28;20088;-74
2023/12/15 11:05:00;;;;;;;26.88;12.07;;;8.40;99.90;;;;;;5051627;28;20048;-76
2023/12/15 11:07:28;;;;;;;32.85;11.57;;;8.40;99.90;;;;;;5046917;28;20052;-78
2023/12/15 11:09:54;;;;;;;;;;;8.50;99.90;;;;;;5047121;28;20098;-79
2023/12/15 11:12:22;;;;;;;33.10;11.60;;;8.50;99.90;;;;;;5045570;28;20413;-79
2023/12/15 11:15:07;;;;;;;22.77;10.40;;;8.50;99.90;;;;;;5046045;28;20053;-79
2023/12/15 11:17:37;;;;;;;33.53;11.77;;;8.60;99.90;;;;;;5042913;28;20124;-79
2023/12/15 11:20:06;;;;;;;31.27;10.73;;;8.60;99.90;;;;;;5047369;28;20095;-78
2023/12/15 11:22:57;;;;;;;26.58;10.10;;;8.60;99.90;;;;;;5047660;28;20412;-78
2023/12/15 11:25:31;;;;;;;31.42;10.95;;;8.60;99.90;;;;;;5045417;28;20049;-80
2023/12/15 11:28:17;;;;;;;27.40;11.07;;;8.70;99.90;;;;;;5044831;28;20404;-78
2023/12/15 11:30:45;;;;;;;32.58;9.65;;;8.70;99.90;;;;;;5046583;28;20205;-79
2023/12/15 11:33:32;;;;;;;26.00;10.70;;;8.70;99.90;;;;;;5047308;28;20238;-78
2023/12/15 11:35:59;;;;;;;30.13;10.85;;;8.70;99.90;;;;;;5047436;28;20689;-79
2023/12/15 11:38:29;;;;;;;27.48;10.13;;;8.70;99.90;;;;;;5043458;28;20580;-74
2023/12/15 11:40:56;;;;;;;30.88;9.60;;;8.70;99.90;;;;;;5047237;28;20095;-75
2023/12/15 11:43:23;;;;;;;29.33;8.90;;;8.80;99.90;;;;;;5043545;28;20132;-77
2023/12/15 11:45:54;;;;;;;38.78;9.18;;;8.80;99.90;;;;;;5044425;28;20334;-78
2023/12/15 11:48:21;;;;;;;37.03;9.82;;;8.90;99.90;;;;;;5039989;28;20242;-79
2023/12/15 11:50:47;;;;;;;22.10;7.78;;;8.90;99.90;;;;;;5044089;28;20037;-79
2023/12/15 11:53:14;;;;;;;29.85;7.68;;;8.90;99.90;;;;;;5050828;28;20061;-79
2023/12/15 11:55:49;;;;;;;26.52;8.07;;;8.90;99.90;;;;;;5050624;28;20424;-78
2023/12/15 11:58:15;;;;;;;20.45;6.55;;;9.00;99.90;;;;;;5043942;28;20096;-75
2023/12/15 12:00:44;;;;;;;33.15;7.05;;;9.00;99.90;;;;;;5028377;28;20072;-75
2023/12/15 12:03:15;;;;;;;27.15;7.10;;;9.00;99.90;;;;;;5039316;28;20068;-75
2023/12/15 12:05:43;;;;;;;28.00;7.35;;;9.10;99.90;;;;;;5044924;28;20084;-74
2023/12/15 12:08:10;;;;;;;28.15;6.60;;;9.10;99.90;;;;;;5042170;28;20139;-74
2023/12/15 12:10:39;;;;;;;27.77;7.82;;;9.10;99.90;;;;;;5032734;28;20119;-74
2023/12/15 12:13:06;;;;;;;25.15;6.93;;;9.10;99.90;;;;;;5041103;28;20052;-73
2023/12/15 12:15:32;;;;;;;;;;;9.10;99.90;;;;;;5039910;28;20053;-72
2023/12/15 12:17:58;;;;;;;24.95;6.53;;;9.10;99.90;;;;;;5075313;28;19923;-73
2023/12/15 12:20:28;;;;;;;25.77;6.57;;;9.00;99.90;;;;;;5047379;28;20060;-71
2023/12/15 12:22:55;;;;;;;25.45;6.32;;;9.10;99.90;;;;;;5052205;28;20081;-72
2023/12/15 12:25:21;;;;;;;19.60;5.07;;;9.10;99.90;;;;;;5046038;28;20033;-72
2023/12/15 12:27:47;;;;;;;30.30;6.70;;;9.10;99.90;;;;;;5049823;28;20053;-72
2023/12/15 12:30:16;;;;;;;22.67;5.70;;;9.20;99.90;;;;;;5046571;28;20052;-72
2023/12/15 12:32:41;;;;;;;25.20;5.55;;;9.20;99.90;;;;;;5040748;28;20508;-74
2023/12/15 12:35:08;;;;;;;18.27;6.28;;;9.20;99.90;;;;;;5041439;28;20041;-73